Time;durP1;ratioP1;P1;durP2;ratioP2;P2;SDS_P1;SDS_P2;PMS_P1;PMS_P2;Temp;Humidity;BMP_temperature;BMP_pressure;BME280_temperature;BME280_humidity;BME280_pressure;Samples;Min_cycle;Max_cycle;Signal;HPM_P1;HPM_P2
2022/04/08 03:00:19;;;;;;;5.63;4.37;;;9.20;99.90;;;;;;5918975;23;20292;-78
2022/04/08 03:02:46;;;;;;;4.93;4.53;;;9.20;99.90;;;;;;4916735;29;20625;-76
2022/04/08 03:05:13;;;;;;;6.03;4.20;;;9.20;99.90;;;;;;4914610;29;20183;-77
2022/04/08 03:07:40;;;;;;;6.57;4.73;;;9.20;99.90;;;;;;4914728;29;20515;-77
2022/04/08 03:10:07;;;;;;;4.37;4.10;;;9.20;99.90;;;;;;4914616;29;20183;-77
2022/04/08 03:12:33;;;;;;;5.57;4.37;;;9.20;99.90;;;;;;4896268;29;20191;-77
2022/04/08 03:15:00;;;;;;;4.30;3.90;;;9.20;99.90;;;;;;4941993;23;20248;-71
2022/04/08 03:17:26;;;;;;;4.30;4.00;;;9.20;99.90;;;;;;4931310;29;20225;-71
2022/04/08 03:19:52;;;;;;;8.60;4.60;;;9.20;99.90;;;;;;4932366;29;20663;-71
2022/04/08 03:22:20;;;;;;;4.47;4.10;;;9.10;99.90;;;;;;4933358;29;20190;-71
2022/04/08 03:24:50;;;;;;;4.07;3.77;;;9.10;99.90;;;;;;4928936;29;20217;-71
2022/04/08 03:27:17;;;;;;;6.37;4.17;;;9.00;99.90;;;;;;4924847;29;20293;-71
2022/04/08 03:29:43;;;;;;;4.53;4.13;;;9.00;99.90;;;;;;4933004;29;20224;-71
2022/04/08 03:32:10;;;;;;;9.33;4.50;;;9.00;99.90;;;;;;4941078;29;20193;-71
2022/04/08 03:34:35;;;;;;;4.47;4.23;;;8.90;99.90;;;;;;4936155;29;20621;-71
2022/04/08 03:37:03;;;;;;;3.97;3.87;;;8.90;99.90;;;;;;4928281;29;20191;-72
2022/04/08 03:39:29;;;;;;;6.33;4.43;;;8.90;99.90;;;;;;4920674;29;20972;-71
2022/04/08 03:41:55;;;;;;;6.20;4.57;;;8.90;99.90;;;;;;4934797;29;20717;-71
2022/04/08 03:44:21;;;;;;;8.40;4.87;;;8.90;99.90;;;;;;4936446;29;20289;-71
2022/04/08 03:46:47;;;;;;;6.87;4.33;;;8.80;99.90;;;;;;4935877;29;20241;-71
2022/04/08 03:49:16;;;;;;;8.23;4.60;;;8.80;99.90;;;;;;4936300;29;20787;-71
2022/04/08 03:51:43;;;;;;;5.07;4.57;;;8.80;99.90;;;;;;4934800;29;20182;-72
2022/04/08 03:54:09;;;;;;;5.80;4.83;;;8.80;99.90;;;;;;4936292;29;20205;-71
2022/04/08 03:56:36;;;;;;;4.70;4.30;;;8.80;99.90;;;;;;4920814;29;20242;-71
2022/04/08 03:59:02;;;;;;;4.67;4.13;;;8.70;99.90;;;;;;4915398;29;20631;-71
2022/04/08 04:01:28;;;;;;;5.17;4.53;;;8.70;99.90;;;;;;4916351;29;20581;-71
2022/04/08 04:03:54;;;;;;;5.07;4.67;;;8.70;99.90;;;;;;4917098;29;20203;-71
2022/04/08 04:06:19;;;;;;;4.77;4.30;;;8.70;99.90;;;;;;4915122;29;20707;-71
2022/04/08 04:08:45;;;;;;;6.77;4.30;;;8.70;99.90;;;;;;4916468;29;20190;-71
2022/04/08 04:11:16;;;;;;;4.97;4.40;;;8.70;99.90;;;;;;4916912;29;20187;-72
2022/04/08 04:13:45;;;;;;;4.83;4.43;;;8.70;99.90;;;;;;4916894;29;20218;-72
2022/04/08 04:16:11;;;;;;;7.57;5.30;;;8.70;99.90;;;;;;4919377;29;20218;-71
2022/04/08 04:18:38;;;;;;;4.70;4.30;;;8.70;99.90;;;;;;4917580;29;20589;-71
2022/04/08 04:21:04;;;;;;;5.00;4.53;;;8.60;99.90;;;;;;4917625;29;20186;-71
2022/04/08 04:23:33;;;;;;;7.07;4.90;;;8.70;99.90;;;;;;4916662;29;20195;-71
2022/04/08 04:26:03;;;;;;;5.70;4.07;;;8.70;99.90;;;;;;4931422;29;20210;-71
2022/04/08 04:28:29;;;;;;;6.33;4.47;;;8.70;99.90;;;;;;4934649;29;20710;-71
2022/04/08 04:30:56;;;;;;;10.50;4.50;;;8.70;99.90;;;;;;4935593;29;20781;-71
2022/04/08 04:33:22;;;;;;;8.43;4.67;;;8.70;99.90;;;;;;4935269;29;20191;-71
2022/04/08 04:35:48;;;;;;;5.40;4.67;;;8.70;99.90;;;;;;4934699;29;20186;-71
2022/04/08 04:38:14;;;;;;;6.17;4.83;;;8.70;99.90;;;;;;4919624;29;20203;-72
2022/04/08 04:40:40;;;;;;;6.73;5.03;;;8.70;99.90;;;;;;4920580;29;20194;-72
2022/04/08 04:43:05;;;;;;;5.00;4.40;;;8.70;99.90;;;;;;4916142;29;20588;-76
2022/04/08 04:45:31;;;;;;;6.30;4.37;;;8.70;99.90;;;;;;4926369;29;20246;-72
2022/04/08 04:47:57;;;;;;;7.67;4.47;;;8.70;99.90;;;;;;4935043;29;20269;-71
2022/04/08 04:50:23;;;;;;;5.03;3.90;;;8.70;99.90;;;;;;4935365;29;20192;-72
2022/04/08 04:52:49;;;;;;;10.40;4.33;;;8.70;99.90;;;;;;4933765;29;20193;-72
2022/04/08 04:55:14;;;;;;;4.20;3.80;;;8.60;99.90;;;;;;4933091;29;20206;-70
2022/04/08 04:57:40;;;;;;;5.27;4.00;;;8.60;99.90;;;;;;4941184;29;20182;-71
2022/04/08 05:00:09;;;;;;;6.87;4.30;;;8.60;99.90;;;;;;4936610;29;20186;-70
2022/04/08 05:02:35;;;;;;;12.23;4.33;;;8.60;99.90;;;;;;4933619;29;20194;-71
2022/04/08 05:05:01;;;;;;;8.80;4.23;;;8.70;99.90;;;;;;4934448;29;20613;-70
2022/04/08 05:07:27;;;;;;;6.23;3.90;;;8.70;99.90;;;;;;4934167;29;20210;-70
2022/04/08 05:09:53;;;;;;;4.40;4.00;;;8.60;99.90;;;;;;4933739;29;20182;-69
2022/04/08 05:12:18;;;;;;;5.07;4.53;;;8.60;99.90;;;;;;4934769;29;20205;-70
2022/04/08 05:14:44;;;;;;;14.10;4.73;;;8.60;99.90;;;;;;4934440;29;20270;-70
2022/04/08 05:17:10;;;;;;;5.00;4.63;;;8.60;99.90;;;;;;4933168;29;20662;-70
2022/04/08 05:19:36;;;;;;;9.37;4.70;;;8.60;99.90;;;;;;4934953;29;20638;-70
2022/04/08 05:22:02;;;;;;;5.33;4.13;;;8.60;99.90;;;;;;4934138;29;20277;-70
2022/04/08 05:24:27;;;;;;;8.33;4.33;;;8.60;99.90;;;;;;4934033;29;20214;-69
2022/04/08 05:26:53;;;;;;;7.67;4.20;;;8.60;99.90;;;;;;4934179;29;20249;-70
2022/04/08 05:29:20;;;;;;;7.47;4.23;;;8.60;99.90;;;;;;4934506;29;20214;-69
2022/04/08 05:31:47;;;;;;;12.50;4.43;;;8.60;99.90;;;;;;4933636;29;20187;-70
2022/04/08 05:34:14;;;;;;;8.13;4.30;;;8.60;99.90;;;;;;4934517;29;20216;-70
2022/04/08 05:36:39;;;;;;;5.03;4.57;;;8.60;99.90;;;;;;4934309;29;20670;-69
2022/04/08 05:39:06;;;;;;;4.57;4.13;;;8.60;99.90;;;;;;4934110;29;20182;-70
2022/04/08 05:41:32;;;;;;;5.20;4.13;;;8.60;99.90;;;;;;4934506;29;20194;-70
2022/04/08 05:43:57;;;;;;;5.73;4.03;;;8.60;99.90;;;;;;4933414;29;20650;-70
2022/04/08 05:46:23;;;;;;;8.63;4.63;;;8.60;99.90;;;;;;4931933;29;20225;-70
2022/04/08 05:48:49;;;;;;;11.03;4.73;;;8.70;99.90;;;;;;4932965;29;20206;-70
2022/04/08 05:51:15;;;;;;;7.40;4.60;;;8.70;99.90;;;;;;4935890;29;20175;-70
2022/04/08 05:53:41;;;;;;;4.30;4.00;;;8.70;99.90;;;;;;4933239;29;20198;-69
2022/04/08 05:56:06;;;;;;;9.97;4.50;;;8.80;99.90;;;;;;4934025;29;20190;-71
2022/04/08 05:58:32;;;;;;;5.43;4.93;;;8.90;99.90;;;;;;4934160;29;20611;-70
2022/04/08 06:00:58;;;;;;;11.87;4.67;;;8.90;99.90;;;;;;4934732;29;20650;-70
2022/04/08 06:03:24;;;;;;;10.10;4.80;;;8.90;99.90;;;;;;4934073;29;20201;-70
2022/04/08 06:05:50;;;;;;;9.53;4.60;;;9.10;99.90;;;;;;4933876;29;20241;-69
2022/04/08 06:08:16;;;;;;;8.87;4.80;;;9.00;99.90;;;;;;4933867;29;20183;-70
2022/04/08 06:10:42;;;;;;;8.27;4.50;;;9.10;99.90;;;;;;4933875;29;20194;-70
2022/04/08 06:13:07;;;;;;;7.27;4.40;;;9.10;99.90;;;;;;4933854;29;20182;-70
2022/04/08 06:15:34;;;;;;;8.30;4.30;;;9.10;99.90;;;;;;4933513;29;20210;-70
2022/04/08 06:18:00;;;;;;;7.27;5.73;;;9.10;99.90;;;;;;4932267;29;20185;-70
2022/04/08 06:20:27;;;;;;;7.77;5.17;;;9.00;99.90;;;;;;4933828;29;20226;-70
2022/04/08 06:22:54;;;;;;;12.73;6.67;;;9.00;99.90;;;;;;4933891;29;20186;-70
2022/04/08 06:25:24;;;;;;;8.10;7.37;;;8.90;99.90;;;;;;4933242;29;20258;-71
2022/04/08 06:28:02;;;;;;;6.10;5.60;;;8.90;99.90;;;;;;4933316;29;20314;-71
2022/04/08 06:30:29;;;;;;;8.97;5.60;;;8.80;99.90;;;;;;4937601;29;20182;-71
2022/04/08 06:32:55;;;;;;;7.57;5.70;;;8.80;99.90;;;;;;4937059;29;20190;-72
2022/04/08 06:35:21;;;;;;;5.67;5.27;;;8.80;99.90;;;;;;4933978;29;20265;-71
2022/04/08 06:37:47;;;;;;;7.93;7.20;;;8.80;99.90;;;;;;4932195;29;20269;-71
2022/04/08 06:40:13;;;;;;;10.60;7.07;;;8.80;99.90;;;;;;4933737;29;20197;-70
2022/04/08 06:42:39;;;;;;;8.10;7.37;;;8.80;99.90;;;;;;4933669;29;20178;-70
2022/04/08 06:45:07;;;;;;;6.27;5.00;;;8.90;99.90;;;;;;4933198;29;20716;-69
2022/04/08 06:47:32;;;;;;;8.07;5.80;;;9.00;99.90;;;;;;4940995;29;20749;-71
2022/04/08 06:49:58;;;;;;;5.33;4.77;;;9.10;99.90;;;;;;4934018;29;20190;-71
2022/04/08 06:52:24;;;;;;;4.33;4.03;;;9.10;99.90;;;;;;4933473;29;20646;-70
2022/04/08 06:54:50;;;;;;;4.37;3.83;;;9.10;99.90;;;;;;4931902;29;20203;-71
2022/04/08 06:57:16;;;;;;;4.33;3.93;;;9.10;99.90;;;;;;4931850;29;20237;-70
2022/04/08 06:59:42;;;;;;;8.37;4.57;;;9.10;99.90;;;;;;4932092;29;20218;-71
2022/04/08 07:02:09;;;;;;;6.33;4.00;;;9.00;99.90;;;;;;4932921;29;20560;-71
2022/04/08 07:04:36;;;;;;;5.37;4.97;;;9.00;99.90;;;;;;4932344;29;20907;-70
2022/04/08 07:07:04;;;;;;;7.87;7.17;;;8.90;99.90;;;;;;4930355;29;20206;-70
2022/04/08 07:09:32;;;;;;;10.83;7.90;;;8.70;99.90;;;;;;4933253;29;20187;-70
2022/04/08 07:11:59;;;;;;;6.07;5.60;;;8.70;99.90;;;;;;4932086;29;20210;-71
2022/04/08 07:14:24;;;;;;;8.73;5.47;;;8.60;99.90;;;;;;4933273;29;20214;-70
2022/04/08 07:16:50;;;;;;;5.37;4.50;;;8.60;99.90;;;;;;4934170;29;20556;-70
2022/04/08 07:19:16;;;;;;;6.20;4.10;;;8.50;99.90;;;;;;4937213;29;20191;-71
2022/04/08 07:21:43;;;;;;;7.23;5.30;;;8.40;99.90;;;;;;4937527;29;20237;-71
2022/04/08 07:24:09;;;;;;;9.47;8.57;;;8.20;99.90;;;;;;4936915;29;20206;-71
2022/04/08 07:26:34;;;;;;;12.13;11.40;;;8.10;99.90;;;;;;4936505;29;20202;-70
2022/04/08 07:29:00;;;;;;;8.20;7.40;;;8.00;99.90;;;;;;4935459;29;20612;-70
2022/04/08 07:31:27;;;;;;;6.40;5.40;;;7.80;99.90;;;;;;4937356;29;20185;-72
2022/04/08 07:33:53;;;;;;;7.93;6.83;;;7.60;99.90;;;;;;4936955;29;20761;-71
2022/04/08 07:36:18;;;;;;;13.57;12.70;;;7.50;99.90;;;;;;4936852;29;20278;-72
2022/04/08 07:38:44;;;;;;;11.80;11.00;;;7.50;99.90;;;;;;4936853;29;20217;-71
2022/04/08 07:41:10;;;;;;;11.30;8.70;;;7.40;99.90;;;;;;4936624;29;20273;-73
2022/04/08 07:43:36;;;;;;;10.60;9.83;;;7.40;99.90;;;;;;4935427;29;20628;-73
2022/04/08 07:46:02;;;;;;;12.13;11.30;;;7.40;99.90;;;;;;4935419;29;20201;-72
2022/04/08 07:48:28;;;;;;;10.87;10.00;;;7.50;99.90;;;;;;4935203;29;20273;-73
2022/04/08 07:50:54;;;;;;;9.83;9.17;;;7.50;99.90;;;;;;4935415;29;20179;-72
2022/04/08 07:53:20;;;;;;;9.73;9.10;;;7.50;99.90;;;;;;4936329;29;20257;-72
2022/04/08 07:55:46;;;;;;;6.67;6.10;;;7.60;99.90;;;;;;4936099;29;20186;-73
2022/04/08 07:58:13;;;;;;;7.97;7.40;;;7.70;99.90;;;;;;4936288;29;20197;-73
2022/04/08 08:00:39;;;;;;;9.07;8.53;;;7.70;99.90;;;;;;4935212;29;20183;-73
2022/04/08 08:03:04;;;;;;;9.50;8.70;;;7.70;99.90;;;;;;4936302;29;20553;-73
2022/04/08 08:05:32;;;;;;;10.40;9.80;;;7.80;99.90;;;;;;4934680;29;20683;-73
2022/04/08 08:08:00;;;;;;;7.00;6.40;;;8.00;99.90;;;;;;4936364;29;20555;-72
2022/04/08 08:10:30;;;;;;;5.13;4.83;;;8.10;99.90;;;;;;4937345;29;20190;-72
2022/04/08 08:12:57;;;;;;;15.90;14.80;;;8.10;99.90;;;;;;4935426;29;20182;-73
2022/04/08 08:15:24;;;;;;;24.97;22.83;;;8.20;99.90;;;;;;4935811;29;20269;-73
2022/04/08 08:17:51;;;;;;;14.03;13.10;;;8.30;99.90;;;;;;4924242;29;20198;-72
2022/04/08 08:20:19;;;;;;;20.20;18.63;;;8.40;99.90;;;;;;4917313;29;20270;-72
2022/04/08 08:22:46;;;;;;;6.37;5.87;;;8.50;99.90;;;;;;4917046;29;20681;-72
2022/04/08 08:25:13;;;;;;;21.63;20.33;;;8.60;99.90;;;;;;4919341;29;20209;-71
2022/04/08 08:27:48;;;;;;;15.17;14.20;;;8.60;99.90;;;;;;4935159;29;20638;-71
2022/04/08 08:30:16;;;;;;;13.90;13.07;;;8.60;99.90;;;;;;4934624;29;20264;-72
2022/04/08 08:32:47;;;;;;;12.30;11.40;;;8.70;99.90;;;;;;4920885;29;20183;-72
2022/04/08 08:35:15;;;;;;;13.90;13.13;;;8.80;99.90;;;;;;4922827;29;20220;-72
2022/04/08 08:37:41;;;;;;;11.40;10.33;;;8.80;99.90;;;;;;4925083;29;20247;-71
2022/04/08 08:40:08;;;;;;;8.17;7.73;;;8.80;99.90;;;;;;4931358;29;20183;-72
2022/04/08 08:42:39;;;;;;;12.30;11.40;;;8.60;99.90;;;;;;4936047;29;20676;-70
2022/04/08 08:45:06;;;;;;;10.30;9.70;;;8.60;99.90;;;;;;4934309;29;20210;-72
2022/04/08 08:47:32;;;;;;;14.47;13.57;;;8.60;99.90;;;;;;4936402;29;20210;-73
2022/04/08 08:49:59;;;;;;;14.43;13.43;;;8.70;99.90;;;;;;4938167;29;20205;-72
2022/04/08 08:52:25;;;;;;;17.20;16.30;;;8.70;99.90;;;;;;4937025;29;20195;-73
2022/04/08 08:54:51;;;;;;;11.07;10.50;;;8.70;99.90;;;;;;4935565;29;20777;-73
2022/04/08 08:57:19;;;;;;;11.13;10.57;;;8.70;99.90;;;;;;4934931;29;20187;-73
2022/04/08 08:59:45;;;;;;;22.27;21.30;;;8.60;99.90;;;;;;4934407;29;20186;-73
2022/04/08 09:02:18;;;;;;;9.73;9.23;;;8.60;99.90;;;;;;4935283;29;20257;-72
2022/04/08 09:04:44;;;;;;;8.60;8.20;;;8.70;99.90;;;;;;4934222;29;20213;-73
2022/04/08 09:07:27;;;;;;;12.20;11.47;;;8.70;99.90;;;;;;4934728;29;20254;-74
2022/04/08 09:09:56;;;;;;;8.07;7.63;;;8.90;99.90;;;;;;4935137;29;20178;-73
2022/04/08 09:12:27;;;;;;;7.33;7.03;;;8.90;99.90;;;;;;4933931;29;20550;-73
2022/04/08 09:14:58;;;;;;;20.47;19.50;;;8.90;99.90;;;;;;4970629;23;20662;-77
2022/04/08 09:17:26;;;;;;;13.90;13.07;;;9.00;99.90;;;;;;4954176;28;20197;-80
2022/04/08 09:19:55;;;;;;;6.13;5.93;;;9.10;99.90;;;;;;4956332;29;20189;-79
2022/04/08 09:22:26;;;;;;;10.83;10.30;;;9.20;99.90;;;;;;4956269;28;20293;-79
2022/04/08 09:24:51;;;;;;;6.17;5.77;;;9.10;99.90;;;;;;4956875;29;20224;-80
2022/04/08 09:27:17;;;;;;;4.87;4.60;;;9.30;99.90;;;;;;4960350;28;20288;-80
2022/04/08 09:29:44;;;;;;;4.30;4.20;;;9.30;99.90;;;;;;4955765;29;20182;-78
2022/04/08 09:32:12;;;;;;;10.90;10.30;;;9.20;99.90;;;;;;4958226;28;20197;-80
2022/04/08 09:34:39;;;;;;;25.83;24.60;;;8.90;99.90;;;;;;4955266;29;20197;-79
2022/04/08 09:37:08;;;;;;;22.50;21.40;;;8.80;99.90;;;;;;4977951;28;20196;-80
2022/04/08 09:39:34;;;;;;;15.23;14.57;;;8.80;99.90;;;;;;4977936;28;20196;-79
2022/04/08 09:42:03;;;;;;;27.67;26.17;;;8.80;99.90;;;;;;4976476;28;20196;-79
2022/04/08 09:44:29;;;;;;;27.90;26.60;;;8.70;99.90;;;;;;4969328;28;20220;-79
2022/04/08 09:46:55;;;;;;;24.80;23.67;;;8.70;99.90;;;;;;4972794;28;20209;-80
2022/04/08 09:49:21;;;;;;;15.50;14.50;;;8.60;99.90;;;;;;4975194;28;20188;-79
2022/04/08 09:51:54;;;;;;;10.90;10.30;;;8.60;99.90;;;;;;4976866;28;20753;-79
2022/04/08 09:54:24;;;;;;;11.23;10.73;;;8.50;99.90;;;;;;4975036;28;20591;-79
2022/04/08 09:56:52;;;;;;;8.73;8.20;;;8.40;99.90;;;;;;4961216;28;20213;-79
2022/04/08 09:59:23;;;;;;;18.33;17.43;;;8.40;99.90;;;;;;4957083;29;20210;-78
2022/04/08 10:01:51;;;;;;;49.93;47.10;;;8.30;99.90;;;;;;4960331;28;20216;-80
2022/04/08 10:04:19;;;;;;;20.47;19.50;;;8.30;99.90;;;;;;4957272;29;20214;-80
2022/04/08 10:06:45;;;;;;;26.13;24.77;;;8.30;99.90;;;;;;4966957;28;20216;-78
2022/04/08 10:09:13;;;;;;;72.43;68.83;;;8.40;99.90;;;;;;4976910;28;20235;-79
2022/04/08 10:12:15;;;;;;;51.87;49.27;;;8.50;99.90;;;;;;4976657;28;20736;-79
2022/04/08 10:15:01;;;;;;;50.03;47.53;;;8.50;99.90;;;;;;4994054;28;20240;-80
2022/04/08 10:17:27;;;;;;;34.10;32.47;;;8.60;99.90;;;;;;4969389;28;20192;-79
2022/04/08 10:19:54;;;;;;;28.33;26.83;;;8.60;99.90;;;;;;4953462;28;20202;-77
2022/04/08 10:22:20;;;;;;;34.80;33.10;;;8.60;99.90;;;;;;4953028;29;20217;-77
2022/04/08 10:24:55;;;;;;;31.13;29.53;;;8.70;99.90;;;;;;4952332;28;20212;-79
2022/04/08 10:27:30;;;;;;;57.43;54.63;;;8.70;99.90;;;;;;4959321;28;20216;-78
2022/04/08 10:29:57;;;;;;;11.80;11.10;;;8.60;99.90;;;;;;4954750;28;20185;-79
2022/04/08 10:32:24;;;;;;;8.90;8.23;;;8.50;99.90;;;;;;4956018;28;20686;-78
2022/04/08 10:34:49;;;;;;;8.67;8.23;;;8.60;99.90;;;;;;4971746;28;20719;-81
2022/04/08 10:37:21;;;;;;;8.73;8.03;;;8.60;99.90;;;;;;4960902;28;20189;-80
2022/04/08 10:39:57;;;;;;;8.67;8.00;;;8.70;99.90;;;;;;4955866;29;20189;-78
2022/04/08 10:42:23;;;;;;;16.17;15.17;;;8.80;99.90;;;;;;4954126;29;20256;-78
2022/04/08 10:44:50;;;;;;;40.57;38.67;;;8.70;99.90;;;;;;4953511;29;20198;-79
2022/04/08 10:47:21;;;;;;;5.20;5.00;;;8.60;99.90;;;;;;4973873;28;20212;-85
2022/04/08 10:49:51;;;;;;;16.33;15.47;;;8.40;99.90;;;;;;4974946;28;20268;-82
2022/04/08 10:52:26;;;;;;;24.27;22.97;;;8.40;99.90;;;;;;4970852;28;20181;-81
2022/04/08 10:55:04;;;;;;;37.57;35.77;;;8.50;99.90;;;;;;4975704;28;20209;-80
2022/04/08 10:57:38;;;;;;;35.00;33.30;;;8.40;99.90;;;;;;4975787;28;20192;-82
2022/04/08 11:00:08;;;;;;;22.30;21.20;;;8.20;99.90;;;;;;4965795;28;20196;-79
2022/04/08 11:02:39;;;;;;;11.63;11.03;;;8.10;99.90;;;;;;4956153;28;20205;-79
2022/04/08 11:05:12;;;;;;;14.03;12.87;;;8.00;99.90;;;;;;4966667;28;20205;-81
2022/04/08 11:07:42;;;;;;;61.37;57.83;;;8.00;99.90;;;;;;4974199;28;20216;-81
2022/04/08 11:10:14;;;;;;;87.90;83.60;;;7.90;99.90;;;;;;4974950;28;20185;-80
2022/04/08 11:12:51;;;;;;;72.20;68.60;;;7.80;99.90;;;;;;4975961;28;20629;-80
2022/04/08 11:15:25;;;;;;;66.93;63.60;;;7.70;99.90;;;;;;4976434;28;20216;-80
2022/04/08 11:17:52;;;;;;;48.67;46.37;;;7.70;99.90;;;;;;4960762;28;20665;-81
2022/04/08 11:20:19;;;;;;;21.60;20.53;;;7.70;99.90;;;;;;4955386;29;20682;-81
2022/04/08 11:22:48;;;;;;;37.70;35.90;;;7.60;99.90;;;;;;4958108;28;20240;-82
2022/04/08 11:25:21;;;;;;;19.50;18.57;;;7.60;99.90;;;;;;4957768;29;20238;-81
2022/04/08 11:28:10;;;;;;;6.73;6.43;;;7.70;99.90;;;;;;4970371;28;20206;-81
2022/04/08 11:30:39;;;;;;;4.67;4.50;;;7.70;99.90;;;;;;4970752;29;20193;-82
2022/04/08 11:33:15;;;;;;;5.80;5.50;;;7.50;99.90;;;;;;4959609;29;20550;-81
2022/04/08 11:35:43;;;;;;;63.77;60.27;;;7.40;99.90;;;;;;4960165;29;20205;-82
2022/04/08 11:38:22;;;;;;;108.27;102.60;;;7.40;99.90;;;;;;4959649;28;20268;-82
2022/04/08 11:40:49;;;;;;;12.13;11.23;;;7.30;99.90;;;;;;4958551;28;20186;-83
2022/04/08 11:43:18;;;;;;;27.03;25.33;;;7.20;99.90;;;;;;4957064;29;20186;-82
2022/04/08 11:45:45;;;;;;;17.80;16.33;;;7.20;99.90;;;;;;4959447;29;20213;-82
2022/04/08 11:48:23;;;;;;;6.63;6.33;;;7.30;99.90;;;;;;4957594;28;20185;-80
2022/04/08 11:50:49;;;;;;;6.60;6.30;;;7.40;99.90;;;;;;4957430;29;20173;-80
2022/04/08 11:53:20;;;;;;;10.17;9.67;;;7.30;99.90;;;;;;4957238;29;20181;-81
2022/04/08 11:55:59;;;;;;;12.67;12.03;;;7.30;99.90;;;;;;4972009;29;20206;-80
2022/04/08 11:58:27;;;;;;;8.33;7.93;;;7.50;99.90;;;;;;4988997;28;20277;-80
2022/04/08 12:00:53;;;;;;;11.70;11.20;;;7.70;99.90;;;;;;4978763;28;20197;-81
2022/04/08 12:03:27;;;;;;;6.93;6.53;;;7.70;99.90;;;;;;4976578;28;20276;-80
2022/04/08 12:05:54;;;;;;;47.50;45.30;;;7.60;99.90;;;;;;4979554;28;20220;-82
2022/04/08 12:08:20;;;;;;;26.90;25.57;;;7.60;99.90;;;;;;4977729;28;20188;-80
2022/04/08 12:10:52;;;;;;;18.37;17.53;;;7.70;99.90;;;;;;4981095;28;20173;-80
2022/04/08 12:13:20;;;;;;;10.37;9.57;;;7.80;99.90;;;;;;4983945;28;20177;-81
2022/04/08 12:15:49;;;;;;;9.50;9.10;;;7.90;99.90;;;;;;4991826;28;20216;-81
2022/04/08 12:18:32;;;;;;;16.03;15.33;;;7.90;99.90;;;;;;4964293;28;20260;-83
2022/04/08 12:21:06;;;;;;;103.27;98.23;;;8.10;99.90;;;;;;4959596;29;20233;-82
2022/04/08 12:23:32;;;;;;;8.70;8.20;;;8.10;99.90;;;;;;4960084;28;20228;-81
2022/04/08 12:26:02;;;;;;;4.50;4.40;;;8.00;99.90;;;;;;4961055;28;20220;-81
2022/04/08 12:28:34;;;;;;;6.37;6.07;;;8.00;99.90;;;;;;4976374;28;20185;-81
2022/04/08 12:31:14;;;;;;;111.93;106.40;;;8.10;99.90;;;;;;4980043;28;20297;-80
2022/04/08 12:33:41;;;;;;;36.33;34.63;;;8.30;99.90;;;;;;4972579;28;20185;-79
2022/04/08 12:36:11;;;;;;;69.77;66.47;;;8.20;99.90;;;;;;4962917;28;20233;-79
2022/04/08 12:38:39;;;;;;;40.90;39.00;;;8.20;99.90;;;;;;4976607;28;20189;-80
2022/04/08 12:41:06;;;;;;;44.47;42.20;;;8.20;99.90;;;;;;4980441;28;20267;-81
2022/04/08 12:43:32;;;;;;;31.17;29.50;;;8.10;99.90;;;;;;4980357;28;20716;-81
2022/04/08 12:45:58;;;;;;;230.20;219.07;;;8.20;99.90;;;;;;4979896;28;20219;-81
2022/04/08 12:48:24;;;;;;;279.13;263.80;;;7.90;99.90;;;;;;4963924;28;20647;-81
2022/04/08 12:50:51;;;;;;;8.40;8.10;;;7.80;99.90;;;;;;4962340;29;20233;-81
2022/04/08 12:53:16;;;;;;;10.93;10.33;;;7.70;99.90;;;;;;4961825;29;20246;-81
2022/04/08 12:55:42;;;;;;;8.40;8.00;;;7.60;99.90;;;;;;4962076;29;20670;-81
2022/04/08 12:58:08;;;;;;;17.23;16.47;;;7.50;99.90;;;;;;4984412;28;20206;-84
2022/04/08 13:00:34;;;;;;;24.07;22.23;;;7.60;99.90;;;;;;4987889;28;20321;-84
2022/04/08 13:03:00;;;;;;;17.70;16.30;;;7.90;99.90;;;;;;4987824;28;20205;-83
2022/04/08 13:05:26;;;;;;;13.30;12.60;;;8.00;99.90;;;;;;4986305;28;20197;-84
2022/04/08 13:07:53;;;;;;;19.17;18.20;;;8.10;99.90;;;;;;4969651;28;20212;-82
2022/04/08 13:10:19;;;;;;;19.07;18.20;;;8.30;99.90;;;;;;4965060;29;20582;-82
2022/04/08 13:12:44;;;;;;;7.90;7.53;;;8.50;99.90;;;;;;4964238;29;20224;-83
2022/04/08 13:15:11;;;;;;;29.23;27.87;;;8.60;99.90;;;;;;4961578;28;20217;-82
2022/04/08 13:17:38;;;;;;;10.10;9.33;;;8.60;99.90;;;;;;4972265;28;20200;-86
2022/04/08 13:20:08;;;;;;;10.40;9.90;;;8.60;99.90;;;;;;4981465;28;20216;-84
2022/04/08 13:22:34;;;;;;;25.17;23.87;;;8.50;99.90;;;;;;4981668;28;20189;-83
2022/04/08 13:24:59;;;;;;;136.57;129.47;;;8.40;99.90;;;;;;4983435;28;20220;-83
2022/04/08 13:27:25;;;;;;;161.47;153.43;;;8.40;99.90;;;;;;4970432;28;20205;-83
2022/04/08 13:29:52;;;;;;;85.77;81.43;;;8.40;99.90;;;;;;4958270;29;20230;-85
2022/04/08 13:32:19;;;;;;;48.33;45.83;;;8.40;99.90;;;;;;4975504;28;20182;-85
2022/04/08 13:34:45;;;;;;;40.60;38.43;;;8.30;99.90;;;;;;4973212;28;20205;-84
2022/04/08 13:37:11;;;;;;;64.83;61.57;;;8.10;99.90;;;;;;4976556;28;20177;-82
2022/04/08 13:39:38;;;;;;;261.70;247.07;;;8.10;99.90;;;;;;4959773;28;20201;-84
2022/04/08 13:42:05;;;;;;;342.60;323.07;;;8.00;99.90;;;;;;4961639;29;20200;-83
2022/04/08 13:44:33;;;;;;;151.90;142.70;;;7.90;99.90;;;;;;4963311;29;20217;-87
2022/04/08 13:46:59;;;;;;;32.10;30.57;;;8.00;99.90;;;;;;4970901;28;20752;-84
2022/04/08 13:49:25;;;;;;;73.83;69.93;;;8.00;99.90;;;;;;4984471;28;20181;-84
2022/04/08 13:51:52;;;;;;;67.20;63.77;;;7.90;99.90;;;;;;4968887;28;20266;-83
2022/04/08 13:54:18;;;;;;;26.57;25.23;;;7.90;99.90;;;;;;4962754;29;20205;-83
2022/04/08 13:56:44;;;;;;;14.23;13.53;;;7.90;99.90;;;;;;4970364;28;20184;-82
2022/04/08 13:59:11;;;;;;;19.27;17.97;;;7.80;99.90;;;;;;4987151;28;20169;-86
2022/04/08 14:01:37;;;;;;;19.80;18.83;;;7.90;99.90;;;;;;4989970;28;20212;-86
2022/04/08 14:04:06;;;;;;;25.47;24.17;;;7.90;99.90;;;;;;4979766;28;20240;-85
2022/04/08 14:06:33;;;;;;;16.93;16.03;;;7.90;99.90;;;;;;4975034;28;20322;-85
2022/04/08 14:08:59;;;;;;;17.47;16.47;;;7.90;99.90;;;;;;4956059;28;20182;-83
2022/04/08 14:11:25;;;;;;;69.67;66.00;;;7.80;99.90;;;;;;4968661;28;20715;-81
2022/04/08 14:13:51;;;;;;;45.57;42.93;;;7.70;99.90;;;;;;4977402;28;20608;-82
2022/04/08 14:16:17;;;;;;;28.57;27.00;;;7.60;99.90;;;;;;4968859;28;20252;-83
2022/04/08 14:18:43;;;;;;;52.20;49.53;;;7.60;99.90;;;;;;4964162;29;20189;-82
2022/04/08 14:21:09;;;;;;;12.13;11.40;;;7.60;99.90;;;;;;4959496;29;20201;-83
2022/04/08 14:23:36;;;;;;;7.63;6.87;;;7.60;99.90;;;;;;4959877;28;20181;-80
2022/04/08 14:26:01;;;;;;;5.93;5.63;;;7.60;99.90;;;;;;4972905;28;20205;-82
2022/04/08 14:28:27;;;;;;;10.90;10.30;;;7.60;99.90;;;;;;4981953;28;20197;-82
2022/04/08 14:30:53;;;;;;;20.17;19.20;;;7.70;99.90;;;;;;4982771;28;20189;-82
2022/04/08 14:33:20;;;;;;;7.43;7.03;;;7.90;99.90;;;;;;4969408;28;20194;-79
2022/04/08 14:35:46;;;;;;;6.23;5.73;;;8.00;99.90;;;;;;4962375;28;20196;-79
2022/04/08 14:38:12;;;;;;;6.47;6.07;;;8.10;99.90;;;;;;4982191;28;20733;-78
2022/04/08 14:40:40;;;;;;;6.63;6.13;;;8.20;99.90;;;;;;4982387;28;20185;-81
2022/04/08 14:43:06;;;;;;;9.73;9.23;;;8.30;99.90;;;;;;4982861;28;20204;-80
2022/04/08 14:45:32;;;;;;;87.27;82.97;;;8.30;99.90;;;;;;4974140;28;20831;-80
2022/04/08 14:47:58;;;;;;;61.50;58.17;;;8.30;99.90;;;;;;4966597;28;20209;-81
2022/04/08 14:50:24;;;;;;;51.17;48.60;;;8.50;99.90;;;;;;4962026;29;20253;-81
2022/04/08 14:52:51;;;;;;;23.77;22.47;;;8.60;99.90;;;;;;4961624;29;20209;-83
2022/04/08 14:55:18;;;;;;;14.93;14.07;;;8.60;99.90;;;;;;4966538;28;20733;-81
2022/04/08 14:57:45;;;;;;;6.70;6.40;;;8.70;99.90;;;;;;4978448;28;20252;-81
2022/04/08 15:00:11;;;;;;;7.63;7.20;;;8.70;99.90;;;;;;4979392;28;20569;-81
2022/04/08 15:02:38;;;;;;;12.97;12.23;;;8.90;99.90;;;;;;4985781;28;20193;-81
2022/04/08 15:05:05;;;;;;;10.37;9.77;;;9.00;99.90;;;;;;4981084;28;20205;-82
2022/04/08 15:07:30;;;;;;;14.20;13.20;;;9.10;99.90;;;;;;4966101;28;20226;-83
2022/04/08 15:09:56;;;;;;;10.47;9.83;;;9.20;99.90;;;;;;4960354;29;20193;-79
2022/04/08 15:12:22;;;;;;;16.63;15.73;;;9.20;99.90;;;;;;4954267;29;20181;-79
2022/04/08 15:14:48;;;;;;;11.10;10.43;;;9.20;99.90;;;;;;4972183;23;20223;-72
2022/04/08 15:17:15;;;;;;;11.10;10.50;;;9.30;99.90;;;;;;4913518;29;20198;-72
2022/04/08 15:19:41;;;;;;;15.03;13.93;;;9.30;99.90;;;;;;4913668;29;20655;-73
2022/04/08 15:22:07;;;;;;;22.83;21.53;;;9.50;99.90;;;;;;4913044;29;20191;-73
2022/04/08 15:24:33;;;;;;;23.30;22.07;;;9.80;99.90;;;;;;4914306;29;20737;-72
2022/04/08 15:27:03;;;;;;;20.13;18.83;;;10.20;99.90;;;;;;4913575;29;20235;-75
2022/04/08 15:29:29;;;;;;;16.70;15.47;;;11.20;99.90;;;;;;4913466;29;20187;-73
2022/04/08 15:31:54;;;;;;;15.70;14.87;;;13.30;99.90;;;;;;4915051;29;20241;-73
2022/04/08 15:34:20;;;;;;;8.20;7.80;;;14.90;99.90;;;;;;4914895;29;20194;-72
2022/04/08 15:36:46;;;;;;;5.47;5.07;;;16.00;99.90;;;;;;4913783;29;20203;-73
2022/04/08 15:39:12;;;;;;;8.17;7.63;;;16.80;99.90;;;;;;4917182;29;20201;-72
2022/04/08 15:41:38;;;;;;;26.80;25.37;;;16.60;99.90;;;;;;4918039;29;20195;-72
2022/04/08 15:44:07;;;;;;;35.23;33.30;;;15.80;99.90;;;;;;4917540;29;20180;-72
2022/04/08 15:46:34;;;;;;;22.33;21.20;;;15.60;99.90;;;;;;4917298;29;20228;-73